Time;durP1;ratioP1;P1;durP2;ratioP2;P2;SDS_P1;SDS_P2;PMS_P1;PMS_P2;Temp;Humidity;BMP_temperature;BMP_pressure;BME280_temperature;BME280_humidity;BME280_pressure;Samples;Min_cycle;Max_cycle;Signal;HPM_P1;HPM_P2
2021/08/24 00:01:41;;;;;;;11.88;6.03;;;16.80;99.90;;;;;;5032657;28;20033;-67
2021/08/24 00:04:07;;;;;;;10.18;5.70;;;16.70;99.90;;;;;;5047443;28;20029;-67
2021/08/24 00:06:33;;;;;;;10.77;5.90;;;16.60;99.90;;;;;;5047613;28;20044;-68
2021/08/24 00:08:59;;;;;;;9.65;6.07;;;16.60;99.90;;;;;;5047557;28;20029;-67
2021/08/24 00:11:25;;;;;;;10.45;6.30;;;16.40;99.90;;;;;;5032147;28;20034;-67
2021/08/24 00:13:51;;;;;;;8.25;5.53;;;16.30;99.90;;;;;;5047769;28;20133;-67
2021/08/24 00:16:17;;;;;;;10.73;6.07;;;16.30;99.90;;;;;;5047430;28;20503;-68
2021/08/24 00:18:46;;;;;;;9.05;6.00;;;16.30;99.90;;;;;;5047332;28;20046;-67
2021/08/24 00:21:12;;;;;;;8.85;5.88;;;16.20;99.90;;;;;;5047443;28;20068;-67
2021/08/24 00:23:38;;;;;;;9.35;6.22;;;16.30;99.90;;;;;;5032316;28;20029;-67
2021/08/24 00:26:04;;;;;;;9.23;6.07;;;16.40;99.90;;;;;;5035319;28;20034;-67
2021/08/24 00:28:30;;;;;;;10.77;6.93;;;16.40;99.90;;;;;;5051864;28;20487;-67
2021/08/24 00:30:56;;;;;;;10.07;6.05;;;16.30;99.90;;;;;;5035926;28;20033;-67
2021/08/24 00:33:24;;;;;;;8.50;6.45;;;16.40;99.90;;;;;;5036325;28;20053;-67
2021/08/24 00:35:51;;;;;;;10.18;6.65;;;16.30;99.90;;;;;;5034899;28;20079;-67
2021/08/24 00:38:20;;;;;;;12.57;7.32;;;16.10;99.90;;;;;;5036164;28;20055;-67
2021/08/24 00:40:58;;;;;;;12.07;6.45;;;16.00;99.90;;;;;;5035061;28;20029;-67
2021/08/24 00:43:26;;;;;;;12.68;7.00;;;16.00;99.90;;;;;;5036299;28;20037;-67
2021/08/24 00:46:28;;;;;;;12.05;7.38;;;15.90;99.90;;;;;;5050993;28;20029;-67
2021/08/24 00:48:57;;;;;;;11.85;7.45;;;15.70;99.90;;;;;;5035964;28;20064;-67
2021/08/24 00:51:27;;;;;;;13.85;7.90;;;15.60;99.90;;;;;;5051229;28;20025;-67
2021/08/24 00:53:54;;;;;;;13.65;7.38;;;15.60;99.90;;;;;;5035923;28;20041;-68
2021/08/24 00:56:20;;;;;;;11.10;7.28;;;15.50;99.90;;;;;;5051171;28;20108;-67
2021/08/24 00:58:46;;;;;;;12.57;7.60;;;15.50;99.90;;;;;;5051263;28;20033;-68
2021/08/24 01:01:13;;;;;;;11.35;7.45;;;15.40;99.90;;;;;;5035782;28;20033;-67
2021/08/24 01:03:44;;;;;;;12.40;7.40;;;15.40;99.90;;;;;;5051156;28;20034;-68
2021/08/24 01:06:43;;;;;;;11.35;7.32;;;15.40;99.90;;;;;;5050639;28;20029;-67
2021/08/24 01:09:33;;;;;;;12.68;7.57;;;15.40;99.90;;;;;;5034396;28;20041;-67
2021/08/24 01:12:10;;;;;;;11.45;7.50;;;15.40;99.90;;;;;;5035260;28;20033;-67
2021/08/24 01:14:41;;;;;;;11.07;7.65;;;15.40;99.90;;;;;;5035249;28;20033;-67
2021/08/24 01:17:21;;;;;;;;;;;15.30;99.90;;;;;;5035601;28;20124;-67
2021/08/24 01:20:29;;;;;;;14.82;8.18;;;15.20;99.90;;;;;;5034276;28;19947;-67
2021/08/24 01:23:39;;;;;;;15.15;8.77;;;15.20;99.90;;;;;;5035207;28;20041;-67
2021/08/24 01:26:50;;;;;;;12.10;8.10;;;15.20;99.90;;;;;;5034164;28;20490;-67
2021/08/24 01:30:40;;;;;;;11.18;7.30;;;15.00;99.90;;;;;;5034485;28;20049;-67
2021/08/24 01:33:31;;;;;;;13.13;7.97;;;15.00;99.90;;;;;;5032465;28;20037;-67
2021/08/24 01:36:05;;;;;;;13.00;8.18;;;15.00;99.90;;;;;;5034666;28;20068;-67
2021/08/24 01:38:40;;;;;;;12.20;7.13;;;15.10;99.90;;;;;;5034596;28;20041;-67
2021/08/24 01:41:31;;;;;;;13.20;7.75;;;15.20;99.90;;;;;;5049284;28;20026;-67
2021/08/24 01:44:21;;;;;;;12.18;7.38;;;15.30;99.90;;;;;;5048991;28;20038;-67
2021/08/24 01:47:03;;;;;;;12.00;6.90;;;15.30;99.90;;;;;;5049871;28;20042;-67
2021/08/24 01:49:44;;;;;;;10.43;6.90;;;15.30;99.90;;;;;;5048821;28;20109;-67
2021/08/24 01:52:16;;;;;;;12.05;7.45;;;15.40;99.90;;;;;;5049227;28;20037;-67
2021/08/24 01:55:26;;;;;;;11.75;7.10;;;15.30;99.90;;;;;;5049714;28;20041;-66
2021/08/24 01:58:10;;;;;;;10.02;6.97;;;15.30;99.90;;;;;;5032933;28;20124;-66
2021/08/24 02:00:42;;;;;;;11.50;7.65;;;15.30;99.90;;;;;;5033421;28;20372;-67
2021/08/24 02:03:13;;;;;;;9.27;7.05;;;15.10;99.90;;;;;;5049318;28;20453;-66
2021/08/24 02:05:54;;;;;;;10.10;6.82;;;15.10;99.90;;;;;;5049844;28;20033;-67
2021/08/24 02:08:28;;;;;;;8.63;5.60;;;15.10;99.90;;;;;;5049527;28;20117;-67
2021/08/24 02:11:00;;;;;;;10.27;7.10;;;15.00;99.90;;;;;;5049419;28;20112;-67
2021/08/24 02:13:41;;;;;;;11.13;7.05;;;15.00;99.90;;;;;;5049689;28;20083;-67
2021/08/24 02:16:12;;;;;;;9.02;6.85;;;15.00;99.90;;;;;;5049410;28;20033;-68
2021/08/24 02:18:44;;;;;;;11.63;7.15;;;15.00;99.90;;;;;;5049321;28;20049;-67
2021/08/24 02:21:16;;;;;;;11.18;6.80;;;15.10;99.90;;;;;;5034360;28;20088;-67
2021/08/24 02:23:45;;;;;;;10.27;7.00;;;15.00;99.90;;;;;;5049417;28;20066;-67
2021/08/24 02:26:13;;;;;;;10.63;6.70;;;15.00;99.90;;;;;;5049331;28;20030;-67
2021/08/24 02:28:52;;;;;;;10.27;6.30;;;15.00;99.90;;;;;;5049077;28;20490;-67
2021/08/24 02:31:41;;;;;;;11.13;6.72;;;14.90;99.90;;;;;;5048932;28;20038;-67
2021/08/24 02:34:30;;;;;;;8.70;6.35;;;14.80;99.90;;;;;;5049554;28;20418;-67
2021/08/24 02:37:08;;;;;;;11.40;6.82;;;14.90;99.90;;;;;;5048894;28;20025;-66
2021/08/24 02:40:05;;;;;;;8.95;6.30;;;14.70;99.90;;;;;;5049069;28;20029;-66
2021/08/24 02:43:09;;;;;;;15.23;8.05;;;14.70;99.90;;;;;;5034096;28;20029;-66
2021/08/24 02:45:44;;;;;;;11.10;6.82;;;14.60;99.90;;;;;;5044421;28;20607;-66
2021/08/24 02:48:13;;;;;;;10.95;6.70;;;14.60;99.90;;;;;;5048776;28;20033;-66
2021/08/24 02:50:41;;;;;;;10.82;6.90;;;14.60;99.90;;;;;;5033387;28;20064;-67
2021/08/24 02:53:08;;;;;;;10.43;7.03;;;14.60;99.90;;;;;;5048872;28;20126;-67
2021/08/24 02:55:34;;;;;;;9.85;6.38;;;14.60;99.90;;;;;;5048601;28;20482;-67
2021/08/24 02:58:00;;;;;;;10.10;6.40;;;14.50;99.90;;;;;;5033737;28;20060;-66
2021/08/24 03:00:26;;;;;;;11.15;6.28;;;14.50;99.90;;;;;;5033289;28;20030;-67
2021/08/24 03:02:51;;;;;;;9.25;5.95;;;14.40;99.90;;;;;;5033640;28;20044;-67
2021/08/24 03:05:17;;;;;;;11.50;6.65;;;14.20;99.90;;;;;;5033443;28;20037;-67
2021/08/24 03:07:43;;;;;;;11.48;7.50;;;14.00;99.90;;;;;;5033561;28;20032;-66
2021/08/24 03:10:17;;;;;;;14.18;7.55;;;14.00;99.90;;;;;;5033033;28;20034;-67
2021/08/24 03:13:08;;;;;;;9.85;6.75;;;13.80;99.90;;;;;;5048271;28;20457;-66
2021/08/24 03:16:06;;;;;;;11.13;7.63;;;13.70;99.90;;;;;;5033155;28;20037;-66
2021/08/24 03:18:48;;;;;;;9.80;6.85;;;13.70;99.90;;;;;;5046782;28;20045;-67
2021/08/24 03:21:25;;;;;;;14.55;7.47;;;13.70;99.90;;;;;;5048297;28;20564;-67
2021/08/24 03:23:53;;;;;;;10.40;7.07;;;13.70;99.90;;;;;;5033009;28;20029;-66
2021/08/24 03:26:26;;;;;;;12.45;7.53;;;13.70;99.90;;;;;;5032786;28;20055;-67
2021/08/24 03:28:53;;;;;;;12.38;8.30;;;13.70;99.90;;;;;;5048032;28;20037;-66
2021/08/24 03:31:19;;;;;;;11.20;7.32;;;13.70;99.90;;;;;;5032453;28;20509;-66
2021/08/24 03:33:45;;;;;;;11.23;7.55;;;13.80;99.90;;;;;;5048318;28;20060;-67
2021/08/24 03:36:13;;;;;;;9.90;6.82;;;13.90;99.90;;;;;;5032850;28;20052;-67
2021/08/24 03:38:38;;;;;;;15.55;7.38;;;13.90;99.90;;;;;;5032719;28;20490;-67
2021/08/24 03:41:08;;;;;;;15.38;7.75;;;13.90;99.90;;;;;;5032634;28;20084;-67
2021/08/24 03:43:35;;;;;;;9.93;7.20;;;14.00;99.90;;;;;;5048121;28;20129;-67
2021/08/24 03:46:01;;;;;;;11.60;7.05;;;13.90;99.90;;;;;;5045768;28;20021;-68
2021/08/24 03:48:27;;;;;;;10.25;6.88;;;13.90;99.90;;;;;;5031432;28;20034;-70
2021/08/24 03:50:53;;;;;;;12.45;6.95;;;13.90;99.90;;;;;;5031468;28;20044;-69
2021/08/24 03:53:19;;;;;;;10.35;6.88;;;13.90;99.90;;;;;;5032487;28;20119;-70
2021/08/24 03:55:44;;;;;;;14.73;7.82;;;14.00;99.90;;;;;;5034699;28;20136;-70
2021/08/24 03:58:12;;;;;;;10.05;6.80;;;14.00;99.90;;;;;;5032226;28;20394;-69
2021/08/24 04:00:45;;;;;;;12.57;7.75;;;14.00;99.90;;;;;;5030430;28;20049;-69
2021/08/24 04:03:10;;;;;;;9.30;7.18;;;13.90;99.90;;;;;;5031147;28;20104;-68
2021/08/24 04:05:36;;;;;;;10.40;6.85;;;13.90;99.90;;;;;;5032488;28;20112;-69
2021/08/24 04:08:02;;;;;;;14.23;8.05;;;13.90;99.90;;;;;;5032194;28;20574;-66
2021/08/24 04:10:28;;;;;;;12.40;7.32;;;13.90;99.90;;;;;;5032116;28;20037;-69
2021/08/24 04:12:53;;;;;;;12.40;7.25;;;13.80;99.90;;;;;;5032170;28;20029;-68
2021/08/24 04:15:20;;;;;;;12.20;7.28;;;13.80;99.90;;;;;;5033847;28;20041;-68
2021/08/24 04:17:46;;;;;;;10.02;6.45;;;13.90;99.90;;;;;;5051934;28;20048;-69
2021/08/24 04:20:14;;;;;;;9.50;5.80;;;13.90;99.90;;;;;;5051963;28;20040;-69
2021/08/24 04:22:44;;;;;;;11.13;5.85;;;13.80;99.90;;;;;;5052205;28;20123;-67
2021/08/24 04:25:12;;;;;;;9.03;5.87;;;13.70;99.90;;;;;;5050857;28;20028;-67
2021/08/24 04:27:38;;;;;;;17.20;10.25;;;13.70;99.90;;;;;;5050721;28;20400;-68
2021/08/24 04:30:05;;;;;;;11.00;7.57;;;13.50;99.90;;;;;;5050937;28;20469;-68
2021/08/24 04:32:34;;;;;;;9.02;6.10;;;13.50;99.90;;;;;;5052045;28;20033;-69
2021/08/24 04:34:59;;;;;;;8.98;5.57;;;13.50;99.90;;;;;;5050859;28;20083;-68
2021/08/24 04:37:25;;;;;;;11.45;6.35;;;13.50;99.90;;;;;;5051982;28;20048;-66
2021/08/24 04:39:51;;;;;;;8.05;5.47;;;13.40;99.90;;;;;;5050477;28;20053;-68
2021/08/24 04:42:17;;;;;;;12.35;6.50;;;13.40;99.90;;;;;;5051880;28;20126;-67
2021/08/24 04:44:43;;;;;;;8.68;5.03;;;13.50;99.90;;;;;;5051709;28;20489;-67
2021/08/24 04:47:09;;;;;;;8.27;5.13;;;13.40;99.90;;;;;;5033437;28;20084;-67
2021/08/24 04:49:35;;;;;;;7.13;4.60;;;13.30;99.90;;;;;;5031797;28;20095;-67
2021/08/24 04:52:01;;;;;;;13.07;5.40;;;13.20;99.90;;;;;;5031634;28;20034;-67
2021/08/24 04:54:33;;;;;;;7.97;4.97;;;13.20;99.90;;;;;;5031893;28;20026;-67
2021/08/24 04:57:00;;;;;;;9.50;4.63;;;13.20;99.90;;;;;;5032044;28;20033;-69
2021/08/24 04:59:27;;;;;;;8.75;4.97;;;13.20;99.90;;;;;;5030376;28;20429;-67
2021/08/24 05:01:52;;;;;;;7.55;5.20;;;13.00;99.90;;;;;;5031814;28;20021;-67
2021/08/24 05:04:18;;;;;;;7.15;4.82;;;12.90;99.90;;;;;;5031511;28;20045;-67
2021/08/24 05:06:44;;;;;;;7.65;5.30;;;12.90;99.90;;;;;;5031564;28;20036;-68
2021/08/24 05:09:09;;;;;;;10.15;5.95;;;12.70;99.90;;;;;;5026166;28;20072;-68
2021/08/24 05:11:35;;;;;;;7.57;5.30;;;12.90;99.90;;;;;;5012148;28;20086;-67
2021/08/24 05:14:01;;;;;;;12.27;5.25;;;12.80;99.90;;;;;;5015496;28;20030;-68
2021/08/24 05:16:27;;;;;;;12.95;5.97;;;12.90;99.90;;;;;;5015106;28;20042;-68
2021/08/24 05:18:53;;;;;;;8.98;5.30;;;13.00;99.90;;;;;;5014586;28;20545;-68
2021/08/24 05:21:18;;;;;;;9.07;5.60;;;13.10;99.90;;;;;;5015387;28;20029;-68
2021/08/24 05:23:44;;;;;;;9.32;6.38;;;12.90;99.90;;;;;;5015692;28;20084;-68
2021/08/24 05:26:16;;;;;;;9.77;6.80;;;12.80;99.90;;;;;;5014402;28;20037;-68
2021/08/24 05:28:43;;;;;;;10.80;6.43;;;13.00;99.90;;;;;;5015711;28;20364;-68
2021/08/24 05:31:09;;;;;;;12.50;6.47;;;13.10;99.90;;;;;;5015176;28;20041;-68
2021/08/24 05:33:35;;;;;;;10.48;6.63;;;13.10;99.90;;;;;;5014198;28;20422;-68
2021/08/24 05:36:01;;;;;;;10.30;6.38;;;13.20;99.90;;;;;;5013833;28;20074;-68
2021/08/24 05:38:29;;;;;;;11.52;5.95;;;13.40;99.90;;;;;;5014180;28;20088;-68
2021/08/24 05:40:56;;;;;;;10.35;6.63;;;13.30;99.90;;;;;;5015277;28;20473;-69
2021/08/24 05:43:23;;;;;;;15.20;6.75;;;13.40;99.90;;;;;;5015188;28;20030;-68
2021/08/24 05:46:05;;;;;;;10.45;6.18;;;13.40;99.90;;;;;;5020673;28;20021;-68
2021/08/24 05:48:33;;;;;;;10.35;6.50;;;13.50;99.90;;;;;;5054445;28;20496;-68
2021/08/24 05:50:59;;;;;;;9.98;7.10;;;13.50;99.90;;;;;;5053357;28;20040;-65
2021/08/24 05:53:26;;;;;;;10.98;7.60;;;13.60;99.90;;;;;;5070105;28;20037;-64
2021/08/24 05:55:53;;;;;;;11.30;6.47;;;13.50;99.90;;;;;;5054812;28;20063;-64
2021/08/24 05:58:19;;;;;;;12.93;6.97;;;13.60;99.90;;;;;;5053373;28;20036;-64
2021/08/24 06:00:45;;;;;;;13.02;7.20;;;13.70;99.90;;;;;;5054641;28;20116;-64
2021/08/24 06:03:11;;;;;;;11.52;5.88;;;13.70;99.90;;;;;;5031147;28;20109;-63
2021/08/24 06:05:38;;;;;;;10.35;5.85;;;13.90;99.90;;;;;;5032814;28;20110;-63
2021/08/24 06:08:04;;;;;;;9.43;5.00;;;14.20;99.90;;;;;;5049221;28;20104;-64
2021/08/24 06:10:30;;;;;;;8.90;5.13;;;14.50;99.90;;;;;;5034275;28;20088;-64
2021/08/24 06:12:56;;;;;;;10.50;4.55;;;14.20;99.90;;;;;;5049611;28;20037;-64
2021/08/24 06:15:22;;;;;;;8.60;4.20;;;14.70;99.90;;;;;;5032780;28;20052;-64
2021/08/24 06:17:48;;;;;;;11.27;4.55;;;14.70;99.90;;;;;;5033906;28;20045;-64
2021/08/24 06:20:15;;;;;;;10.60;5.80;;;14.90;99.90;;;;;;5034352;28;20033;-63
2021/08/24 06:22:41;;;;;;;6.97;3.30;;;15.10;99.90;;;;;;5033742;28;20041;-64
2021/08/24 06:25:08;;;;;;;6.93;3.40;;;15.30;99.90;;;;;;5049651;28;20055;-64
2021/08/24 06:27:33;;;;;;;7.25;3.30;;;15.20;99.90;;;;;;5033892;28;20037;-63
2021/08/24 06:29:59;;;;;;;6.53;3.67;;;15.30;99.90;;;;;;5033005;28;20108;-64
2021/08/24 06:32:36;;;;;;;7.50;3.55;;;14.90;99.90;;;;;;5033747;28;20044;-63
2021/08/24 06:35:04;;;;;;;7.25;2.90;;;14.90;99.90;;;;;;5049475;28;20044;-62
2021/08/24 06:37:30;;;;;;;5.57;3.20;;;14.70;99.90;;;;;;5033599;28;20381;-63
2021/08/24 06:39:57;;;;;;;6.65;2.40;;;14.80;99.90;;;;;;5033705;28;20072;-63
2021/08/24 06:42:23;;;;;;;6.60;2.95;;;14.80;99.90;;;;;;5048765;28;20037;-63
2021/08/24 06:44:48;;;;;;;7.80;3.28;;;14.80;99.90;;;;;;5033537;28;20029;-63
2021/08/24 06:47:14;;;;;;;6.22;2.72;;;14.80;99.90;;;;;;5033485;28;20108;-62
2021/08/24 06:49:40;;;;;;;7.63;2.15;;;15.10;99.90;;;;;;5030306;28;20030;-63
2021/08/24 06:52:06;;;;;;;6.43;2.75;;;15.10;99.90;;;;;;5033226;28;20060;-62
2021/08/24 06:54:33;;;;;;;6.10;2.53;;;15.20;99.90;;;;;;5033296;28;20041;-62
2021/08/24 06:57:04;;;;;;;3.58;1.85;;;15.20;99.90;;;;;;5033673;28;20056;-63
2021/08/24 06:59:30;;;;;;;6.27;2.50;;;15.60;99.90;;;;;;5032190;28;20029;-63
2021/08/24 07:01:55;;;;;;;3.70;2.05;;;15.70;99.90;;;;;;5031955;28;20291;-63
2021/08/24 07:04:21;;;;;;;3.63;1.80;;;16.00;99.90;;;;;;5032832;28;20072;-62
2021/08/24 07:06:50;;;;;;;4.63;2.00;;;16.20;99.90;;;;;;5033488;28;20049;-63
2021/08/24 07:09:17;;;;;;;3.35;2.00;;;15.90;99.90;;;;;;5033465;28;20119;-63
2021/08/24 07:11:43;;;;;;;4.88;2.25;;;16.00;99.90;;;;;;5048382;28;20489;-63
2021/08/24 07:14:10;;;;;;;4.00;2.05;;;15.90;99.90;;;;;;5033240;28;20091;-63
2021/08/24 07:16:42;;;;;;;5.07;2.00;;;16.20;99.90;;;;;;5032567;28;20176;-63
2021/08/24 07:19:08;;;;;;;4.72;1.90;;;16.40;99.90;;;;;;5033287;28;20076;-62
2021/08/24 07:21:34;;;;;;;6.75;2.00;;;16.50;99.90;;;;;;5032840;28;20402;-63
2021/08/24 07:24:00;;;;;;;5.78;2.03;;;16.50;99.90;;;;;;5031493;28;20422;-63
2021/08/24 07:26:26;;;;;;;3.92;1.92;;;16.30;99.90;;;;;;5031822;28;20029;-63
2021/08/24 07:28:52;;;;;;;4.80;1.55;;;16.30;99.90;;;;;;5031318;28;20033;-63
2021/08/24 07:31:18;;;;;;;2.88;1.52;;;16.60;99.90;;;;;;5032813;28;20029;-63
2021/08/24 07:33:44;;;;;;;7.60;1.80;;;16.90;99.90;;;;;;5031676;28;20038;-63
2021/08/24 07:36:11;;;;;;;4.32;2.35;;;16.90;99.90;;;;;;5032212;28;20030;-63
2021/08/24 07:38:37;;;;;;;2.90;1.63;;;16.80;99.90;;;;;;5032691;28;20025;-62
2021/08/24 07:41:04;;;;;;;6.80;2.13;;;16.90;99.90;;;;;;5032796;28;20038;-62
2021/08/24 07:43:30;;;;;;;4.47;1.80;;;17.00;99.90;;;;;;5032361;28;20112;-63
2021/08/24 07:45:56;;;;;;;4.70;2.03;;;17.20;99.90;;;;;;5041538;28;20025;-62
2021/08/24 07:48:24;;;;;;;5.78;1.73;;;16.90;99.90;;;;;;5051066;28;20040;-63
2021/08/24 07:50:51;;;;;;;5.07;1.60;;;17.10;99.90;;;;;;5067634;28;20127;-62
2021/08/24 07:53:19;;;;;;;3.33;1.58;;;17.20;99.90;;;;;;5052597;28;20122;-61
2021/08/24 07:55:46;;;;;;;5.03;2.05;;;17.40;99.90;;;;;;5015650;28;20528;-62
2021/08/24 07:58:12;;;;;;;3.55;1.58;;;17.40;99.90;;;;;;5013162;28;20030;-62
2021/08/24 08:00:38;;;;;;;2.80;1.50;;;17.50;99.90;;;;;;5012895;28;20057;-62
2021/08/24 08:03:04;;;;;;;3.67;1.80;;;17.50;99.90;;;;;;5012986;28;20058;-62
2021/08/24 08:05:31;;;;;;;4.15;1.60;;;17.60;99.90;;;;;;5011244;28;20034;-62
2021/08/24 08:07:56;;;;;;;3.47;1.15;;;17.70;99.90;;;;;;5013036;28;20033;-62
2021/08/24 08:10:24;;;;;;;4.47;1.55;;;17.90;99.90;;;;;;5012395;28;20111;-62
2021/08/24 08:12:50;;;;;;;2.95;1.42;;;17.60;99.90;;;;;;5012502;28;20038;-61
2021/08/24 08:15:17;;;;;;;7.80;1.80;;;17.80;99.90;;;;;;5012740;28;20095;-63
2021/08/24 08:17:43;;;;;;;3.03;1.58;;;17.60;99.90;;;;;;5012171;28;20524;-63
2021/08/24 08:20:11;;;;;;;4.00;1.55;;;17.30;99.90;;;;;;5012338;28;20482;-63
2021/08/24 08:22:38;;;;;;;4.50;1.70;;;17.40;99.90;;;;;;5012102;28;20042;-62
2021/08/24 08:25:07;;;;;;;3.28;1.65;;;17.70;99.90;;;;;;5011419;28;20092;-62
2021/08/24 08:27:32;;;;;;;6.00;2.05;;;18.00;99.90;;;;;;5012406;28;20030;-62
2021/08/24 08:29:58;;;;;;;6.10;1.98;;;18.10;99.90;;;;;;5012393;28;20401;-63
2021/08/24 08:32:30;;;;;;;4.93;1.60;;;17.80;99.90;;;;;;5012234;28;20072;-62
2021/08/24 08:34:56;;;;;;;4.07;1.55;;;17.90;99.90;;;;;;5011127;28;20061;-61
2021/08/24 08:37:24;;;;;;;3.40;1.70;;;18.10;99.90;;;;;;5010965;28;20393;-61
2021/08/24 08:39:50;;;;;;;2.55;1.33;;;18.00;99.90;;;;;;5011116;28;20030;-61
2021/08/24 08:42:52;;;;;;;3.33;1.60;;;18.30;99.90;;;;;;5012130;28;20057;-62
2021/08/24 08:45:43;;;;;;;6.30;2.00;;;18.20;99.90;;;;;;5031036;28;20441;-62
2021/08/24 08:48:26;;;;;;;6.65;1.30;;;18.30;99.90;;;;;;5049973;28;20030;-62
2021/08/24 08:51:23;;;;;;;6.43;1.90;;;18.30;99.90;;;;;;5035505;28;20557;-61
2021/08/24 08:54:05;;;;;;;4.13;1.50;;;18.40;99.90;;;;;;5025200;28;20041;-62
2021/08/24 08:57:09;;;;;;;5.93;1.60;;;19.00;99.90;;;;;;5014819;28;20033;-61
2021/08/24 08:59:57;;;;;;;3.83;1.70;;;19.30;99.90;;;;;;5012087;28;20062;-62
2021/08/24 09:03:10;;;;;;;4.88;2.30;;;19.30;99.90;;;;;;5021626;28;20025;-62
2021/08/24 09:05:37;;;;;;;3.85;1.30;;;19.00;99.90;;;;;;5015167;28;20041;-62
2021/08/24 09:08:03;;;;;;;3.20;1.52;;;19.10;99.90;;;;;;5019657;28;20076;-62
2021/08/24 09:10:51;;;;;;;4.82;1.80;;;19.50;99.90;;;;;;5040267;28;20033;-62
2021/08/24 09:13:52;;;;;;;6.72;1.60;;;18.90;99.90;;;;;;5041567;28;20029;-62
2021/08/24 09:16:17;;;;;;;4.40;1.80;;;19.10;99.90;;;;;;5026976;28;20029;-62
2021/08/24 09:19:16;;;;;;;4.45;1.48;;;19.50;99.90;;;;;;5023503;28;20524;-62
2021/08/24 09:21:45;;;;;;;5.05;2.10;;;19.80;99.90;;;;;;5037696;28;20050;-63
2021/08/24 09:24:21;;;;;;;3.13;1.60;;;19.90;99.90;;;;;;5023700;28;20041;-62
2021/08/24 09:27:02;;;;;;;6.05;1.88;;;19.90;99.90;;;;;;5026247;28;20132;-62
2021/08/24 09:29:44;;;;;;;4.93;1.80;;;19.80;99.90;;;;;;5026500;28;20095;-63
2021/08/24 09:32:13;;;;;;;3.78;1.65;;;19.90;99.90;;;;;;5023082;28;20033;-62
2021/08/24 09:34:44;;;;;;;4.30;1.58;;;20.10;99.90;;;;;;5017656;28;20402;-62
2021/08/24 09:37:17;;;;;;;3.63;1.92;;;20.40;99.90;;;;;;4998088;28;20437;-62
2021/08/24 09:39:52;;;;;;;3.60;1.60;;;20.10;99.90;;;;;;5030034;28;20108;-62
2021/08/24 09:42:44;;;;;;;4.07;1.67;;;20.30;99.90;;;;;;5021379;28;20072;-62
2021/08/24 09:45:29;;;;;;;4.65;1.85;;;20.30;99.90;;;;;;5015232;28;20508;-61
2021/08/24 09:47:58;;;;;;;4.28;1.95;;;20.30;99.90;;;;;;5015308;28;20068;-61
2021/08/24 09:50:38;;;;;;;4.53;1.70;;;20.10;99.90;;;;;;5014835;28;20128;-62
2021/08/24 09:53:07;;;;;;;3.03;1.63;;;20.50;99.90;;;;;;5014944;28;20034;-62
2021/08/24 09:55:45;;;;;;;3.78;1.70;;;20.60;99.90;;;;;;5013705;28;20030;-62
2021/08/24 09:58:35;;;;;;;4.28;2.00;;;20.10;99.90;;;;;;5028650;28;20060;-62
2021/08/24 10:01:07;;;;;;;3.83;1.60;;;19.80;99.90;;;;;;5029457;28;20138;-63
2021/08/24 10:04:06;;;;;;;4.03;2.13;;;20.00;99.90;;;;;;5029854;28;20042;-63
2021/08/24 10:06:38;;;;;;;3.13;1.60;;;20.10;99.90;;;;;;5014568;28;20547;-63
2021/08/24 10:09:25;;;;;;;4.10;1.90;;;20.50;99.90;;;;;;5014723;28;20034;-62
2021/08/24 10:11:51;;;;;;;3.10;1.45;;;20.20;99.90;;;;;;5014382;28;20113;-63
2021/08/24 10:14:26;;;;;;;3.85;1.98;;;20.20;99.90;;;;;;5029938;28;20092;-63
2021/08/24 10:16:57;;;;;;;3.15;1.80;;;20.40;99.90;;;;;;5014307;28;20112;-63
2021/08/24 10:19:29;;;;;;;;;;;20.50;99.90;;;;;;5029917;28;20081;-63
2021/08/24 10:22:01;;;;;;;4.53;1.95;;;20.60;99.90;;;;;;5014746;28;19975;-63
2021/08/24 10:25:23;;;;;;;3.33;1.50;;;20.90;99.90;;;;;;5029264;28;20049;-62
2021/08/24 10:28:26;;;;;;;6.00;2.15;;;21.20;99.90;;;;;;5019111;28;20042;-63
2021/08/24 10:30:57;;;;;;;5.65;2.38;;;20.90;99.90;;;;;;5014048;28;20069;-62
2021/08/24 10:33:32;;;;;;;3.97;1.80;;;21.20;99.90;;;;;;5013342;28;20030;-62
2021/08/24 10:36:22;;;;;;;5.38;1.63;;;21.40;99.90;;;;;;4997536;28;20034;-62
2021/08/24 10:39:16;;;;;;;5.30;2.22;;;21.40;99.90;;;;;;5023811;28;20025;-62
2021/08/24 10:41:49;;;;;;;3.90;1.60;;;20.70;99.90;;;;;;5033961;28;20064;-63
2021/08/24 10:44:26;;;;;;;4.13;1.73;;;20.40;99.90;;;;;;5048398;28;20045;-64
2021/08/24 10:47:05;;;;;;;3.85;1.83;;;20.70;99.90;;;;;;5033736;28;20033;-62
2021/08/24 10:49:32;;;;;;;9.77;1.90;;;20.80;99.90;;;;;;5032201;28;20068;-63
2021/08/24 10:52:08;;;;;;;4.72;2.20;;;21.20;99.90;;;;;;5049024;28;20041;-63
2021/08/24 10:55:00;;;;;;;4.38;1.85;;;21.20;99.90;;;;;;5048882;28;20021;-63
2021/08/24 10:58:13;;;;;;;3.97;1.77;;;21.40;99.90;;;;;;5047990;28;20489;-62
2021/08/24 11:00:44;;;;;;;5.25;1.88;;;21.10;99.90;;;;;;5033533;28;20030;-75
2021/08/24 11:03:42;;;;;;;4.15;1.90;;;21.30;99.90;;;;;;5033301;28;20116;-68
2021/08/24 11:06:34;;;;;;;5.03;1.67;;;21.10;99.90;;;;;;5033109;28;20081;-68
2021/08/24 11:09:09;;;;;;;4.13;1.90;;;21.00;99.90;;;;;;5045093;28;20072;-68
2021/08/24 11:12:45;;;;;;;5.55;2.10;;;21.20;99.90;;;;;;5032896;28;20493;-68
2021/08/24 11:16:01;;;;;;;5.05;2.33;;;20.60;99.90;;;;;;5022052;28;20489;-68
2021/08/24 11:18:44;;;;;;;4.82;2.30;;;20.80;99.90;;;;;;4991188;28;20061;-68
2021/08/24 11:21:36;;;;;;;5.63;2.20;;;21.00;99.90;;;;;;4992551;28;20072;-68
2021/08/24 11:24:15;;;;;;;4.15;2.30;;;20.80;99.90;;;;;;5010928;28;20061;-68
2021/08/24 11:27:23;;;;;;;4.45;2.42;;;20.80;99.90;;;;;;5010772;28;20045;-68
2021/08/24 11:29:58;;;;;;;3.95;2.08;;;21.20;99.90;;;;;;5007734;28;20076;-68
2021/08/24 11:32:46;;;;;;;4.45;2.22;;;21.40;99.90;;;;;;5008466;28;20038;-68
2021/08/24 11:35:21;;;;;;;4.53;2.50;;;21.50;99.90;;;;;;5010727;28;20126;-67
2021/08/24 11:38:04;;;;;;;3.90;1.98;;;21.30;99.90;;;;;;4994343;28;20140;-68
2021/08/24 11:41:05;;;;;;;7.50;2.90;;;21.70;99.90;;;;;;5010614;28;20038;-68
2021/08/24 11:43:35;;;;;;;4.88;2.35;;;21.50;99.90;;;;;;5013735;28;20457;-68
2021/08/24 11:46:11;;;;;;;4.32;2.25;;;21.50;99.90;;;;;;5000682;28;20446;-68
2021/08/24 11:48:42;;;;;;;3.63;2.00;;;22.00;99.90;;;;;;5007486;28;20034;-68
2021/08/24 11:51:27;;;;;;;5.03;2.47;;;22.20;99.90;;;;;;5008307;28;20038;-68
2021/08/24 11:54:10;;;;;;;5.13;2.63;;;22.00;99.90;;;;;;5007939;28;20038;-68
2021/08/24 11:56:45;;;;;;;5.45;2.58;;;22.20;99.90;;;;;;4991321;28;20037;-68
2021/08/24 11:59:30;;;;;;;5.03;2.47;;;22.10;99.90;;;;;;4995755;28;20521;-68
2021/08/24 12:01:55;;;;;;;4.53;2.60;;;22.60;99.90;;;;;;4992224;28;20117;-68
2021/08/24 12:04:26;;;;;;;3.83;2.20;;;22.90;99.90;;;;;;4992701;28;20165;-68
2021/08/24 12:06:57;;;;;;;5.53;2.70;;;23.20;99.90;;;;;;4991459;28;20035;-68
2021/08/24 12:09:42;;;;;;;5.50;2.65;;;22.90;99.90;;;;;;4991940;28;20038;-68
2021/08/24 12:12:33;;;;;;;3.90;2.70;;;22.50;99.90;;;;;;4992673;28;20041;-67
2021/08/24 12:15:15;;;;;;;7.75;3.22;;;22.50;99.90;;;;;;4991613;28;20042;-67
2021/08/24 12:17:41;;;;;;;5.63;3.55;;;22.70;99.90;;;;;;5000146;28;20449;-67
2021/08/24 12:20:29;;;;;;;4.97;2.80;;;22.80;99.90;;;;;;5025636;28;20025;-67
2021/08/24 12:23:00;;;;;;;7.32;3.10;;;22.40;99.90;;;;;;5044187;28;20033;-67
2021/08/24 12:25:44;;;;;;;;;;;22.50;99.90;;;;;;5047212;28;20037;-67
2021/08/24 12:28:15;;;;;;;6.57;3.20;;;22.00;99.90;;;;;;5030865;28;19960;-67
2021/08/24 12:30:59;;;;;;;4.93;2.85;;;22.30;99.90;;;;;;5031973;28;20067;-67
2021/08/24 12:33:45;;;;;;;4.25;2.60;;;21.90;99.90;;;;;;5031767;28;20037;-67
2021/08/24 12:36:17;;;;;;;4.60;2.80;;;22.00;99.90;;;;;;5047251;28;20033;-67
2021/08/24 12:38:57;;;;;;;4.30;2.63;;;22.10;99.90;;;;;;5031889;28;20152;-67
2021/08/24 12:41:34;;;;;;;5.70;2.83;;;22.00;99.90;;;;;;5031822;28;20034;-67
2021/08/24 12:44:12;;;;;;;5.22;2.63;;;22.30;99.90;;;;;;5030750;28;20045;-66
2021/08/24 12:46:39;;;;;;;6.68;3.40;;;21.90;99.90;;;;;;5031352;28;20480;-66
2021/08/24 12:49:17;;;;;;;4.15;2.83;;;21.80;99.90;;;;;;5032155;28;20025;-67
2021/08/24 12:52:27;;;;;;;4.50;2.75;;;21.40;99.90;;;;;;5031439;28;20496;-66
2021/08/24 12:55:15;;;;;;;4.67;2.80;;;21.40;99.90;;;;;;5046828;28;20083;-67
2021/08/24 12:57:47;;;;;;;5.63;2.58;;;21.70;99.90;;;;;;5031555;28;20648;-68
2021/08/24 13:00:23;;;;;;;6.47;2.75;;;21.90;99.90;;;;;;5047059;28;20040;-67
2021/08/24 13:02:59;;;;;;;4.40;2.47;;;21.70;99.90;;;;;;5046515;28;20124;-67
2021/08/24 13:05:35;;;;;;;6.95;2.90;;;22.00;99.90;;;;;;5030805;28;20151;-67
2021/08/24 13:08:01;;;;;;;4.80;2.40;;;21.90;99.90;;;;;;5062854;28;20037;-67
2021/08/24 13:10:41;;;;;;;4.88;3.05;;;21.90;99.90;;;;;;5031221;28;20050;-67
2021/08/24 13:13:53;;;;;;;4.57;2.80;;;21.70;99.90;;;;;;5047135;28;20022;-66
2021/08/24 13:16:22;;;;;;;4.50;2.95;;;21.70;99.90;;;;;;5049011;28;20167;-67
2021/08/24 13:18:52;;;;;;;5.95;3.08;;;21.40;99.90;;;;;;5032761;28;20041;-66
2021/08/24 13:21:50;;;;;;;4.40;2.65;;;21.30;99.90;;;;;;5046835;28;20068;-67